createdAt,value
2019-01-31T00:04:18.677Z,18.03
2019-01-31T00:10:39.882Z,20.60
2019-01-31T00:14:58.950Z,16.10
2019-01-31T00:19:30.420Z,17.60
2019-01-31T00:24:06.226Z,18.00
2019-01-31T00:28:25.973Z,17.57
2019-01-31T00:33:15.755Z,16.00
2019-01-31T00:37:34.801Z,14.83
2019-01-31T00:41:54.753Z,15.40
2019-01-31T00:46:17.986Z,15.10
2019-01-31T00:50:40.163Z,16.30
2019-01-31T00:55:11.238Z,17.40
2019-01-31T01:00:05.646Z,15.30
2019-01-31T01:05:00.902Z,15.50
2019-01-31T01:10:20.292Z,14.30
2019-01-31T01:16:43.928Z,14.50
2019-01-31T01:21:02.276Z,14.17
2019-01-31T01:25:20.645Z,15.40
2019-01-31T01:29:54.701Z,14.00
2019-01-31T01:34:17.431Z,14.20
2019-01-31T01:40:39.955Z,13.00
2019-01-31T01:44:59.625Z,14.87
2019-01-31T01:49:48.166Z,13.70
2019-01-31T01:54:06.197Z,11.60
2019-01-31T01:58:23.326Z,13.47
2019-01-31T02:02:45.709Z,11.17
2019-01-31T02:07:02.756Z,12.27
2019-01-31T02:11:22.768Z,12.00
2019-01-31T02:15:47.464Z,10.20
2019-01-31T02:20:09.249Z,11.60
2019-01-31T02:24:26.810Z,10.57
2019-01-31T02:28:48.730Z,10.83
2019-01-31T02:34:12.627Z,9.20
2019-01-31T02:39:05.819Z,11.00
2019-01-31T02:44:28.398Z,10.03
2019-01-31T02:48:46.726Z,9.37
2019-01-31T02:53:05.625Z,9.70
2019-01-31T02:57:34.835Z,10.90
2019-01-31T03:01:56.658Z,11.00
2019-01-31T03:06:09.153Z,10.20
2019-01-31T03:10:33.229Z,9.97
2019-01-31T03:14:47.148Z,8.47
2019-01-31T03:19:34.210Z,10.00
2019-01-31T03:26:58.215Z,9.37
2019-01-31T03:31:18.347Z,8.63
2019-01-31T03:35:32.942Z,9.20
2019-01-31T03:40:10.673Z,9.70
2019-01-31T03:44:29.310Z,8.07
2019-01-31T03:48:48.373Z,9.90
2019-01-31T03:53:07.752Z,9.50
2019-01-31T03:57:41.833Z,11.03
2019-01-31T04:02:04.529Z,8.83
2019-01-31T04:06:17.886Z,10.20
2019-01-31T04:10:26.099Z,8.97
2019-01-31T04:14:34.303Z,9.97
2019-01-31T04:18:42.542Z,10.60
2019-01-31T04:22:50.768Z,9.07
2019-01-31T04:26:58.998Z,9.40
2019-01-31T04:31:07.238Z,9.40
2019-01-31T04:35:15.483Z,10.57
2019-01-31T04:39:23.693Z,8.03
2019-01-31T04:43:31.945Z,9.10
2019-01-31T04:47:40.173Z,9.03
2019-01-31T04:51:48.403Z,8.77
2019-01-31T04:55:56.674Z,8.50
2019-01-31T05:00:06.208Z,8.43
2019-01-31T05:04:14.439Z,7.83
2019-01-31T05:08:22.642Z,8.43
2019-01-31T05:12:30.885Z,9.63
2019-01-31T05:16:39.119Z,9.40
2019-01-31T05:20:47.409Z,10.57
2019-01-31T05:24:55.721Z,9.00
2019-01-31T05:29:03.980Z,8.30
2019-01-31T05:33:12.215Z,8.57
2019-01-31T05:37:20.497Z,9.43
2019-01-31T05:41:28.737Z,10.00
2019-01-31T05:45:36.951Z,9.97
2019-01-31T05:49:45.799Z,10.30
2019-01-31T05:53:54.260Z,8.60
2019-01-31T05:58:02.513Z,9.73
2019-01-31T06:02:10.784Z,10.30
2019-01-31T06:06:19.014Z,10.83
2019-01-31T06:10:27.267Z,9.77
2019-01-31T06:14:35.619Z,9.13
2019-01-31T06:18:43.894Z,9.30
2019-01-31T06:22:52.231Z,8.70
2019-01-31T06:27:00.415Z,8.30
2019-01-31T06:31:08.630Z,8.97
2019-01-31T06:35:16.937Z,9.37
2019-01-31T06:39:25.163Z,9.10
2019-01-31T06:43:33.427Z,9.53
2019-01-31T06:47:41.649Z,8.63
2019-01-31T06:51:49.936Z,8.77
2019-01-31T06:55:58.171Z,9.07
2019-01-31T07:00:11.250Z,9.03
2019-01-31T07:04:19.522Z,8.37
2019-01-31T07:08:27.758Z,7.93
2019-01-31T07:12:35.971Z,8.93
2019-01-31T07:16:44.269Z,8.23
2019-01-31T07:20:52.522Z,8.00
2019-01-31T07:25:00.782Z,9.20
2019-01-31T07:29:09.004Z,8.50
2019-01-31T07:33:17.243Z,8.43
2019-01-31T07:37:25.513Z,9.20
2019-01-31T07:41:40.986Z,9.83
2019-01-31T07:45:42.055Z,8.20
2019-01-31T07:49:50.435Z,9.70
2019-01-31T07:53:58.596Z,9.00
2019-01-31T07:58:06.860Z,10.47
2019-01-31T08:02:15.088Z,10.80
2019-01-31T08:06:23.330Z,9.80
2019-01-31T08:10:34.452Z,11.67
2019-01-31T08:14:42.734Z,11.03
2019-01-31T08:18:50.979Z,12.10
2019-01-31T08:23:00.255Z,12.37
2019-01-31T08:27:08.133Z,11.37
2019-01-31T08:31:16.390Z,11.30
2019-01-31T08:35:24.621Z,10.63
2019-01-31T08:39:32.903Z,11.80
2019-01-31T08:43:41.150Z,11.23
2019-01-31T08:47:49.391Z,10.87
2019-01-31T08:51:57.614Z,11.10
2019-01-31T08:56:05.851Z,12.13
2019-01-31T09:00:16.959Z,11.17
2019-01-31T09:04:25.181Z,10.93
2019-01-31T09:08:33.430Z,12.27
2019-01-31T09:12:41.666Z,12.33
2019-01-31T09:16:49.884Z,13.00
2019-01-31T09:21:03.265Z,14.20
2019-01-31T09:25:52.844Z,12.93
2019-01-31T09:30:32.483Z,9.77
2019-01-31T09:35:07.834Z,11.27
2019-01-31T09:41:35.918Z,11.63
2019-01-31T09:46:00.822Z,10.72
2019-01-31T09:51:19.554Z,13.03
2019-01-31T09:55:53.011Z,12.80
2019-01-31T10:03:19.237Z,12.10
2019-01-31T10:07:35.098Z,12.10
2019-01-31T10:11:57.344Z,14.20
2019-01-31T10:16:22.743Z,13.70
2019-01-31T10:22:54.108Z,12.63
2019-01-31T10:27:10.942Z,13.47
2019-01-31T10:31:41.877Z,12.73
2019-01-31T10:38:02.591Z,13.40
2019-01-31T10:42:21.958Z,13.40
2019-01-31T10:48:47.438Z,12.67
2019-01-31T10:53:06.862Z,11.30
2019-01-31T10:58:22.476Z,13.50
2019-01-31T11:04:50.306Z,12.60
2019-01-31T11:09:09.289Z,13.80
2019-01-31T11:13:33.905Z,11.70
2019-01-31T11:17:53.893Z,12.18
2019-01-31T11:22:18.119Z,12.97
2019-01-31T11:26:56.987Z,11.63
2019-01-31T11:31:12.262Z,14.50
2019-01-31T11:37:36.907Z,13.27
2019-01-31T11:41:59.814Z,16.23
2019-01-31T11:46:19.405Z,17.63
2019-01-31T11:50:40.881Z,16.97
2019-01-31T11:55:01.385Z,16.50
2019-01-31T11:59:09.700Z,15.43
2019-01-31T12:03:18.058Z,15.60
2019-01-31T12:07:26.378Z,13.30
2019-01-31T12:11:34.655Z,15.63
2019-01-31T12:15:42.904Z,16.00
2019-01-31T12:19:51.138Z,15.53
2019-01-31T12:23:59.389Z,14.73
2019-01-31T12:28:07.687Z,14.77
2019-01-31T12:32:16.010Z,15.63
2019-01-31T12:36:24.226Z,15.67
2019-01-31T12:40:32.510Z,13.27
2019-01-31T12:44:40.754Z,16.10
2019-01-31T12:48:48.987Z,14.90
2019-01-31T12:52:57.206Z,14.87
2019-01-31T12:57:05.423Z,14.60
2019-01-31T13:01:13.704Z,14.50
2019-01-31T13:05:21.957Z,14.50
2019-01-31T13:09:30.208Z,13.97
2019-01-31T13:13:45.963Z,12.83
2019-01-31T13:17:46.749Z,14.80
2019-01-31T13:21:54.940Z,16.17
2019-01-31T13:26:03.171Z,14.20
2019-01-31T13:30:14.082Z,15.57
2019-01-31T13:34:22.347Z,13.30
2019-01-31T13:38:30.569Z,14.07
2019-01-31T13:42:38.786Z,13.80
2019-01-31T13:46:47.039Z,12.33
2019-01-31T13:50:55.309Z,12.57
2019-01-31T13:55:03.598Z,13.77
2019-01-31T13:59:11.806Z,13.00
2019-01-31T14:03:20.130Z,11.30
2019-01-31T14:07:28.395Z,12.70
2019-01-31T14:11:36.625Z,11.07
2019-01-31T14:15:44.862Z,16.07
2019-01-31T14:19:53.132Z,13.20
2019-01-31T14:24:01.374Z,11.70
2019-01-31T14:28:09.611Z,11.40
2019-01-31T14:32:17.833Z,12.37
2019-01-31T14:36:26.209Z,10.73
2019-01-31T14:40:34.335Z,11.70
2019-01-31T14:44:42.571Z,11.43
2019-01-31T14:48:50.822Z,14.07
2019-01-31T14:52:59.028Z,18.50
2019-01-31T14:57:07.347Z,15.03
2019-01-31T15:01:15.564Z,14.87
2019-01-31T15:05:23.865Z,15.87
2019-01-31T15:09:32.116Z,14.10
2019-01-31T15:13:40.370Z,16.60
2019-01-31T15:17:48.650Z,14.87
2019-01-31T15:21:56.869Z,13.03
2019-01-31T15:26:05.106Z,13.00
2019-01-31T15:30:15.955Z,11.93
2019-01-31T15:34:24.174Z,11.73
2019-01-31T15:38:32.437Z,15.00
2019-01-31T15:42:40.683Z,13.40
2019-01-31T15:46:48.887Z,13.80
2019-01-31T15:50:57.156Z,13.20
2019-01-31T15:55:06.639Z,12.93
2019-01-31T15:59:14.861Z,12.87
2019-01-31T16:03:24.298Z,12.93
2019-01-31T16:07:32.592Z,16.53
2019-01-31T16:11:40.794Z,14.97
2019-01-31T16:15:49.070Z,15.47
2019-01-31T16:19:57.291Z,15.17
2019-01-31T16:24:05.567Z,16.20
2019-01-31T16:28:13.826Z,13.97
2019-01-31T16:32:22.080Z,13.83
2019-01-31T16:36:30.334Z,18.03
2019-01-31T16:40:38.620Z,17.63
2019-01-31T16:44:46.871Z,18.50
2019-01-31T16:48:55.145Z,18.23
2019-01-31T16:53:03.433Z,16.30
2019-01-31T16:57:11.626Z,15.23
2019-01-31T17:01:19.854Z,16.60
2019-01-31T17:05:29.941Z,15.57
2019-01-31T17:09:39.400Z,16.10
2019-01-31T17:13:46.473Z,16.17
2019-01-31T17:17:54.762Z,16.53
2019-01-31T17:22:03.010Z,16.10
2019-01-31T17:26:11.302Z,15.43
2019-01-31T17:30:21.274Z,16.23
2019-01-31T17:34:29.572Z,14.87
2019-01-31T17:38:37.853Z,14.60
2019-01-31T17:42:46.091Z,13.33
2019-01-31T17:46:54.354Z,14.20
2019-01-31T17:51:02.577Z,14.10
2019-01-31T17:55:12.537Z,12.97
2019-01-31T17:59:20.878Z,15.90
2019-01-31T18:03:29.037Z,16.17
2019-01-31T18:07:37.314Z,17.00
2019-01-31T18:11:45.579Z,16.03
2019-01-31T18:15:53.814Z,15.87
2019-01-31T18:20:02.052Z,14.30
2019-01-31T18:24:10.322Z,16.83
2019-01-31T18:28:18.291Z,16.00
2019-01-31T18:32:26.544Z,16.00
2019-01-31T18:36:34.803Z,16.33
2019-01-31T18:40:43.029Z,17.43
2019-01-31T18:44:51.341Z,17.07
2019-01-31T18:48:59.601Z,16.07
2019-01-31T18:53:07.848Z,18.20
2019-01-31T18:57:16.108Z,17.33
2019-01-31T19:01:24.404Z,18.43
2019-01-31T19:05:32.701Z,17.30
2019-01-31T19:09:40.968Z,18.30
2019-01-31T19:13:49.218Z,18.40
2019-01-31T19:18:05.435Z,18.40
2019-01-31T19:22:05.733Z,17.70
2019-01-31T19:26:13.982Z,16.33
2019-01-31T19:30:27.768Z,17.07
2019-01-31T19:34:35.993Z,17.57
2019-01-31T19:38:44.270Z,15.90
2019-01-31T19:42:52.569Z,16.07
2019-01-31T19:47:00.805Z,16.50
2019-01-31T19:51:09.350Z,15.07
2019-01-31T19:55:17.603Z,15.20
2019-01-31T19:59:25.860Z,16.10
2019-01-31T20:03:34.165Z,12.87
2019-01-31T20:07:42.583Z,13.90
2019-01-31T20:11:50.855Z,14.07
2019-01-31T20:15:59.162Z,13.00
2019-01-31T20:20:09.283Z,14.47
2019-01-31T20:24:17.507Z,13.90
2019-01-31T20:28:25.769Z,13.13
2019-01-31T20:32:34.042Z,12.57
2019-01-31T20:36:42.291Z,15.40
2019-01-31T20:40:50.531Z,11.83
2019-01-31T20:44:58.805Z,12.67
2019-01-31T20:49:07.134Z,12.37
2019-01-31T20:53:15.385Z,12.43
2019-01-31T20:57:23.614Z,11.68
2019-01-31T21:01:31.867Z,13.33
2019-01-31T21:05:40.402Z,11.30
2019-01-31T21:09:48.624Z,11.53
2019-01-31T21:13:56.907Z,12.40
2019-01-31T21:18:05.872Z,11.47
2019-01-31T21:22:14.124Z,12.63
2019-01-31T21:26:24.697Z,12.17
2019-01-31T21:30:32.799Z,13.00
2019-01-31T21:34:41.017Z,13.47
2019-01-31T21:38:49.266Z,14.70
2019-01-31T21:42:57.543Z,12.67
2019-01-31T21:47:05.803Z,12.27
2019-01-31T21:51:14.051Z,11.60
2019-01-31T21:55:22.317Z,11.90
2019-01-31T21:59:30.574Z,14.03
2019-01-31T22:03:38.818Z,11.70
2019-01-31T22:07:47.060Z,13.23
2019-01-31T22:11:55.317Z,14.93
2019-01-31T22:16:03.314Z,13.90
2019-01-31T22:20:11.635Z,14.80
2019-01-31T22:24:19.924Z,12.60
2019-01-31T22:28:28.173Z,13.90
2019-01-31T22:32:36.388Z,13.20
2019-01-31T22:36:44.710Z,12.97
2019-01-31T22:40:52.931Z,12.50
2019-01-31T22:45:01.081Z,12.97
2019-01-31T22:49:09.246Z,13.43
2019-01-31T22:53:17.499Z,13.87
2019-01-31T22:57:25.476Z,13.30
2019-01-31T23:01:37.657Z,12.43
2019-01-31T23:05:45.893Z,13.63
2019-01-31T23:09:54.211Z,11.50
2019-01-31T23:14:02.470Z,14.70
2019-01-31T23:18:10.686Z,14.10
2019-01-31T23:22:18.976Z,12.80
2019-01-31T23:26:27.203Z,15.83
2019-01-31T23:30:35.431Z,16.23
2019-01-31T23:34:43.643Z,14.57
2019-01-31T23:38:51.866Z,15.57
2019-01-31T23:43:00.126Z,14.97
2019-01-31T23:47:08.369Z,15.37
2019-01-31T23:51:16.605Z,14.53
2019-01-31T23:55:24.810Z,12.97
2019-01-31T23:59:33.068Z,13.23
